sensor_id;sensor_type;location;lat;lon;timestamp;pressure;altitude;pressure_sealevel;temperature;humidity
43153;BME280;28756;49.064;9.290;2023-05-25T00:00:15;58433.56;;;-147.77;100.00
43153;BME280;28756;49.064;9.290;2023-05-25T00:02:41;58433.56;;;-147.77;100.00
43153;BME280;28756;49.064;9.290;2023-05-25T00:05:11;58433.56;;;-147.77;100.00
43153;BME280;28756;49.064;9.290;2023-05-25T00:07:38;58433.56;;;-147.77;100.00
43153;BME280;28756;49.064;9.290;2023-05-25T00:10:05;58433.56;;;-147.77;100.00
43153;BME280;28756;49.064;9.290;2023-05-25T00:12:32;58433.56;;;-147.77;100.00
43153;BME280;28756;49.064;9.290;2023-05-25T00:14:58;58433.56;;;-147.77;100.00
43153;BME280;28756;49.064;9.290;2023-05-25T00:17:24;58433.56;;;-147.77;100.00
43153;BME280;28756;49.064;9.290;2023-05-25T00:19:57;58433.56;;;-147.77;100.00
43153;BME280;28756;49.064;9.290;2023-05-25T00:22:23;58433.56;;;-147.77;100.00
43153;BME280;28756;49.064;9.290;2023-05-25T00:24:51;58433.56;;;-147.77;100.00
43153;BME280;28756;49.064;9.290;2023-05-25T00:27:17;58433.56;;;-147.77;100.00
43153;BME280;28756;49.064;9.290;2023-05-25T00:29:42;58433.56;;;-147.77;100.00
43153;BME280;28756;49.064;9.290;2023-05-25T00:32:08;58433.56;;;-147.77;100.00
43153;BME280;28756;49.064;9.290;2023-05-25T00:34:34;58433.56;;;-147.77;100.00
43153;BME280;28756;49.064;9.290;2023-05-25T00:37:01;58433.56;;;-147.77;100.00
43153;BME280;28756;49.064;9.290;2023-05-25T00:39:27;58433.56;;;-147.77;100.00
43153;BME280;28756;49.064;9.290;2023-05-25T00:41:53;58433.56;;;-147.77;100.00
43153;BME280;28756;49.064;9.290;2023-05-25T00:44:19;58433.56;;;-147.77;100.00
43153;BME280;28756;49.064;9.290;2023-05-25T00:46:51;58433.56;;;-147.77;100.00
43153;BME280;28756;49.064;9.290;2023-05-25T00:49:20;58433.56;;;-147.77;100.00
43153;BME280;28756;49.064;9.290;2023-05-25T00:51:51;58433.56;;;-147.77;100.00
43153;BME280;28756;49.064;9.290;2023-05-25T00:54:17;58433.56;;;-147.77;100.00
43153;BME280;28756;49.064;9.290;2023-05-25T00:56:56;58433.56;;;-147.77;100.00
43153;BME280;28756;49.064;9.290;2023-05-25T00:59:40;58433.56;;;-147.77;100.00
43153;BME280;28756;49.064;9.290;2023-05-25T01:02:10;58433.56;;;-147.77;100.00
43153;BME280;28756;49.064;9.290;2023-05-25T01:04:40;58433.56;;;-147.77;100.00
43153;BME280;28756;49.064;9.290;2023-05-25T01:07:11;58433.56;;;-147.77;100.00
43153;BME280;28756;49.064;9.290;2023-05-25T01:09:41;58433.56;;;-147.77;100.00
43153;BME280;28756;49.064;9.290;2023-05-25T01:12:10;58433.56;;;-147.77;100.00
43153;BME280;28756;49.064;9.290;2023-05-25T01:14:39;58433.56;;;-147.77;100.00
43153;BME280;28756;49.064;9.290;2023-05-25T01:17:09;58433.56;;;-147.77;100.00
43153;BME280;28756;49.064;9.290;2023-05-25T01:19:35;58433.56;;;-147.77;100.00
43153;BME280;28756;49.064;9.290;2023-05-25T01:22:27;58433.56;;;-147.77;100.00
43153;BME280;28756;49.064;9.290;2023-05-25T01:25:08;58433.56;;;-147.77;100.00
43153;BME280;28756;49.064;9.290;2023-05-25T01:27:45;58433.56;;;-147.77;100.00
43153;BME280;28756;49.064;9.290;2023-05-25T01:30:15;58433.56;;;-147.77;100.00
43153;BME280;28756;49.064;9.290;2023-05-25T01:32:42;58433.56;;;-147.77;100.00
43153;BME280;28756;49.064;9.290;2023-05-25T01:35:10;58433.56;;;-147.77;100.00
43153;BME280;28756;49.064;9.290;2023-05-25T01:37:37;58433.56;;;-147.77;100.00
43153;BME280;28756;49.064;9.290;2023-05-25T01:40:08;58433.56;;;-147.77;100.00
43153;BME280;28756;49.064;9.290;2023-05-25T01:42:34;58433.56;;;-147.77;100.00
43153;BME280;28756;49.064;9.290;2023-05-25T01:45:00;58433.56;;;-147.77;100.00
43153;BME280;28756;49.064;9.290;2023-05-25T01:50:23;58433.56;;;-147.77;100.00
43153;BME280;28756;49.064;9.290;2023-05-25T01:53:27;58433.56;;;-147.77;100.00
43153;BME280;28756;49.064;9.290;2023-05-25T01:55:59;58433.56;;;-147.77;100.00
43153;BME280;28756;49.064;9.290;2023-05-25T01:58:29;58433.56;;;-147.77;100.00
43153;BME280;28756;49.064;9.290;2023-05-25T02:00:59;58433.56;;;-147.77;100.00
43153;BME280;28756;49.064;9.290;2023-05-25T02:03:25;58433.56;;;-147.77;100.00
43153;BME280;28756;49.064;9.290;2023-05-25T02:05:51;58433.56;;;-147.77;100.00
43153;BME280;28756;49.064;9.290;2023-05-25T02:08:18;58433.56;;;-147.77;100.00
43153;BME280;28756;49.064;9.290;2023-05-25T02:10:45;58433.56;;;-147.77;100.00
43153;BME280;28756;49.064;9.290;2023-05-25T02:13:11;58433.56;;;-147.77;100.00
43153;BME280;28756;49.064;9.290;2023-05-25T02:15:37;58433.56;;;-147.77;100.00
43153;BME280;28756;49.064;9.290;2023-05-25T02:18:02;58433.56;;;-147.77;100.00
43153;BME280;28756;49.064;9.290;2023-05-25T02:20:30;58433.56;;;-147.77;100.00
43153;BME280;28756;49.064;9.290;2023-05-25T02:22:56;58433.56;;;-147.77;100.00
43153;BME280;28756;49.064;9.290;2023-05-25T02:25:22;58433.56;;;-147.77;100.00
43153;BME280;28756;49.064;9.290;2023-05-25T02:27:47;58433.56;;;-147.77;100.00
43153;BME280;28756;49.064;9.290;2023-05-25T02:30:13;58433.56;;;-147.77;100.00
43153;BME280;28756;49.064;9.290;2023-05-25T02:32:39;58433.56;;;-147.77;100.00
43153;BME280;28756;49.064;9.290;2023-05-25T02:35:06;58433.56;;;-147.77;100.00
43153;BME280;28756;49.064;9.290;2023-05-25T02:37:32;58433.56;;;-147.77;100.00
43153;BME280;28756;49.064;9.290;2023-05-25T02:39:58;58433.56;;;-147.77;100.00
43153;BME280;28756;49.064;9.290;2023-05-25T02:42:24;58433.56;;;-147.77;100.00
43153;BME280;28756;49.064;9.290;2023-05-25T02:44:50;58433.56;;;-147.77;100.00
43153;BME280;28756;49.064;9.290;2023-05-25T02:47:16;58433.56;;;-147.77;100.00
43153;BME280;28756;49.064;9.290;2023-05-25T02:49:44;58433.56;;;-147.77;100.00
43153;BME280;28756;49.064;9.290;2023-05-25T02:52:10;58433.56;;;-147.77;100.00
43153;BME280;28756;49.064;9.290;2023-05-25T02:54:36;58433.56;;;-147.77;100.00
43153;BME280;28756;49.064;9.290;2023-05-25T02:57:03;58433.56;;;-147.77;100.00
43153;BME280;28756;49.064;9.290;2023-05-25T02:59:29;58433.56;;;-147.77;100.00
43153;BME280;28756;49.064;9.290;2023-05-25T03:01:56;58433.56;;;-147.77;100.00
43153;BME280;28756;49.064;9.290;2023-05-25T03:04:22;58433.56;;;-147.77;100.00
43153;BME280;28756;49.064;9.290;2023-05-25T03:06:48;58433.56;;;-147.77;100.00
43153;BME280;28756;49.064;9.290;2023-05-25T03:09:14;58433.56;;;-147.77;100.00
43153;BME280;28756;49.064;9.290;2023-05-25T03:11:40;58433.56;;;-147.77;100.00
43153;BME280;28756;49.064;9.290;2023-05-25T03:14:06;58433.56;;;-147.77;100.00
43153;BME280;28756;49.064;9.290;2023-05-25T03:16:32;58433.56;;;-147.77;100.00
43153;BME280;28756;49.064;9.290;2023-05-25T03:19:02;58433.56;;;-147.77;100.00
43153;BME280;28756;49.064;9.290;2023-05-25T03:21:27;58433.56;;;-147.77;100.00
43153;BME280;28756;49.064;9.290;2023-05-25T03:23:53;58433.56;;;-147.77;100.00
43153;BME280;28756;49.064;9.290;2023-05-25T03:26:19;58433.56;;;-147.77;100.00
43153;BME280;28756;49.064;9.290;2023-05-25T03:28:45;58433.56;;;-147.77;100.00
43153;BME280;28756;49.064;9.290;2023-05-25T03:31:10;58433.56;;;-147.77;100.00
43153;BME280;28756;49.064;9.290;2023-05-25T03:33:37;58433.56;;;-147.77;100.00
43153;BME280;28756;49.064;9.290;2023-05-25T03:36:09;58433.56;;;-147.77;100.00
43153;BME280;28756;49.064;9.290;2023-05-25T03:38:37;58433.56;;;-147.77;100.00
43153;BME280;28756;49.064;9.290;2023-05-25T03:41:03;58433.56;;;-147.77;100.00
43153;BME280;28756;49.064;9.290;2023-05-25T03:43:29;58433.56;;;-147.77;100.00
43153;BME280;28756;49.064;9.290;2023-05-25T03:45:55;58433.56;;;-147.77;100.00
43153;BME280;28756;49.064;9.290;2023-05-25T03:48:21;58433.56;;;-147.77;100.00
43153;BME280;28756;49.064;9.290;2023-05-25T03:50:47;58433.56;;;-147.77;100.00
43153;BME280;28756;49.064;9.290;2023-05-25T03:53:12;58433.56;;;-147.77;100.00
43153;BME280;28756;49.064;9.290;2023-05-25T03:55:38;58433.56;;;-147.77;100.00
43153;BME280;28756;49.064;9.290;2023-05-25T03:58:04;58433.56;;;-147.77;100.00
43153;BME280;28756;49.064;9.290;2023-05-25T04:00:30;58433.56;;;-147.77;100.00
43153;BME280;28756;49.064;9.290;2023-05-25T04:02:55;58433.56;;;-147.77;100.00
43153;BME280;28756;49.064;9.290;2023-05-25T04:05:21;58433.56;;;-147.77;100.00
43153;BME280;28756;49.064;9.290;2023-05-25T04:07:47;58433.56;;;-147.77;100.00
43153;BME280;28756;49.064;9.290;2023-05-25T04:10:13;58433.56;;;-147.77;100.00
43153;BME280;28756;49.064;9.290;2023-05-25T04:12:39;58433.56;;;-147.77;100.00
43153;BME280;28756;49.064;9.290;2023-05-25T04:15:05;58433.56;;;-147.77;100.00
43153;BME280;28756;49.064;9.290;2023-05-25T04:17:34;58433.56;;;-147.77;100.00
43153;BME280;28756;49.064;9.290;2023-05-25T04:20:01;58433.56;;;-147.77;100.00
43153;BME280;28756;49.064;9.290;2023-05-25T04:22:27;58433.56;;;-147.77;100.00
43153;BME280;28756;49.064;9.290;2023-05-25T04:24:53;58433.56;;;-147.77;100.00
43153;BME280;28756;49.064;9.290;2023-05-25T04:27:18;58433.56;;;-147.77;100.00
43153;BME280;28756;49.064;9.290;2023-05-25T04:29:45;58433.56;;;-147.77;100.00
43153;BME280;28756;49.064;9.290;2023-05-25T04:32:11;58433.56;;;-147.77;100.00
43153;BME280;28756;49.064;9.290;2023-05-25T04:34:43;58433.56;;;-147.77;100.00
43153;BME280;28756;49.064;9.290;2023-05-25T04:37:11;58433.56;;;-147.77;100.00
43153;BME280;28756;49.064;9.290;2023-05-25T04:39:36;58433.56;;;-147.77;100.00
43153;BME280;28756;49.064;9.290;2023-05-25T04:42:02;58433.56;;;-147.77;100.00
43153;BME280;28756;49.064;9.290;2023-05-25T04:44:30;58433.56;;;-147.77;100.00
43153;BME280;28756;49.064;9.290;2023-05-25T04:46:56;58433.56;;;-147.77;100.00
43153;BME280;28756;49.064;9.290;2023-05-25T04:49:22;58433.56;;;-147.77;100.00
43153;BME280;28756;49.064;9.290;2023-05-25T04:51:47;58433.56;;;-147.77;100.00
43153;BME280;28756;49.064;9.290;2023-05-25T04:54:13;58433.56;;;-147.77;100.00
43153;BME280;28756;49.064;9.290;2023-05-25T04:56:39;58433.56;;;-147.77;100.00
43153;BME280;28756;49.064;9.290;2023-05-25T04:59:05;58433.56;;;-147.77;100.00
43153;BME280;28756;49.064;9.290;2023-05-25T05:01:30;58433.56;;;-147.77;100.00
43153;BME280;28756;49.064;9.290;2023-05-25T05:03:58;58433.56;;;-147.77;100.00
43153;BME280;28756;49.064;9.290;2023-05-25T05:06:24;58433.56;;;-147.77;100.00
43153;BME280;28756;49.064;9.290;2023-05-25T05:08:51;58433.56;;;-147.77;100.00
43153;BME280;28756;49.064;9.290;2023-05-25T05:11:17;58433.56;;;-147.77;100.00
43153;BME280;28756;49.064;9.290;2023-05-25T05:13:42;58433.56;;;-147.77;100.00
43153;BME280;28756;49.064;9.290;2023-05-25T05:16:08;58433.56;;;-147.77;100.00
43153;BME280;28756;49.064;9.290;2023-05-25T05:18:34;58433.56;;;-147.77;100.00
43153;BME280;28756;49.064;9.290;2023-05-25T05:21:00;58433.56;;;-147.77;100.00
43153;BME280;28756;49.064;9.290;2023-05-25T05:23:25;58433.56;;;-147.77;100.00
43153;BME280;28756;49.064;9.290;2023-05-25T05:25:51;58433.56;;;-147.77;100.00
43153;BME280;28756;49.064;9.290;2023-05-25T05:28:17;58433.56;;;-147.77;100.00
43153;BME280;28756;49.064;9.290;2023-05-25T05:30:42;58433.56;;;-147.77;100.00
43153;BME280;28756;49.064;9.290;2023-05-25T05:33:11;58433.56;;;-147.77;100.00
43153;BME280;28756;49.064;9.290;2023-05-25T05:35:36;58433.56;;;-147.77;100.00
43153;BME280;28756;49.064;9.290;2023-05-25T05:38:02;58433.56;;;-147.77;100.00
43153;BME280;28756;49.064;9.290;2023-05-25T05:40:28;58433.56;;;-147.77;100.00
43153;BME280;28756;49.064;9.290;2023-05-25T05:42:53;58433.56;;;-147.77;100.00
43153;BME280;28756;49.064;9.290;2023-05-25T05:45:19;58433.56;;;-147.77;100.00
43153;BME280;28756;49.064;9.290;2023-05-25T05:47:45;58433.56;;;-147.77;100.00
43153;BME280;28756;49.064;9.290;2023-05-25T05:50:11;58433.56;;;-147.77;100.00
43153;BME280;28756;49.064;9.290;2023-05-25T05:52:37;58433.56;;;-147.77;100.00
43153;BME280;28756;49.064;9.290;2023-05-25T05:55:03;58433.56;;;-147.77;100.00
43153;BME280;28756;49.064;9.290;2023-05-25T05:57:29;58433.56;;;-147.77;100.00
43153;BME280;28756;49.064;9.290;2023-05-25T05:59:54;58433.56;;;-147.77;100.00
43153;BME280;28756;49.064;9.290;2023-05-25T06:02:20;58433.56;;;-147.77;100.00
43153;BME280;28756;49.064;9.290;2023-05-25T06:04:46;58433.56;;;-147.77;100.00
43153;BME280;28756;49.064;9.290;2023-05-25T06:07:12;58433.56;;;-147.77;100.00
43153;BME280;28756;49.064;9.290;2023-05-25T06:09:37;58433.56;;;-147.77;100.00
43153;BME280;28756;49.064;9.290;2023-05-25T06:12:04;58433.56;;;-147.77;100.00
43153;BME280;28756;49.064;9.290;2023-05-25T06:14:30;58433.56;;;-147.77;100.00
43153;BME280;28756;49.064;9.290;2023-05-25T06:16:57;58433.56;;;-147.77;100.00
43153;BME280;28756;49.064;9.290;2023-05-25T06:19:22;58433.56;;;-147.77;100.00
43153;BME280;28756;49.064;9.290;2023-05-25T06:21:48;58433.56;;;-147.77;100.00
43153;BME280;28756;49.064;9.290;2023-05-25T06:24:14;58433.56;;;-147.77;100.00
43153;BME280;28756;49.064;9.290;2023-05-25T06:26:40;58433.56;;;-147.77;100.00
43153;BME280;28756;49.064;9.290;2023-05-25T06:29:06;58433.56;;;-147.77;100.00
43153;BME280;28756;49.064;9.290;2023-05-25T06:31:32;58433.56;;;-147.77;100.00
43153;BME280;28756;49.064;9.290;2023-05-25T06:33:57;58433.56;;;-147.77;100.00
43153;BME280;28756;49.064;9.290;2023-05-25T06:36:23;58433.56;;;-147.77;100.00
43153;BME280;28756;49.064;9.290;2023-05-25T06:38:49;58433.56;;;-147.77;100.00
43153;BME280;28756;49.064;9.290;2023-05-25T06:41:14;58433.56;;;-147.77;100.00
43153;BME280;28756;49.064;9.290;2023-05-25T06:43:40;58433.56;;;-147.77;100.00
43153;BME280;28756;49.064;9.290;2023-05-25T06:46:09;58433.56;;;-147.77;100.00
43153;BME280;28756;49.064;9.290;2023-05-25T06:48:37;58433.56;;;-147.77;100.00
43153;BME280;28756;49.064;9.290;2023-05-25T06:51:03;58433.56;;;-147.77;100.00
43153;BME280;28756;49.064;9.290;2023-05-25T06:53:30;58433.56;;;-147.77;100.00
43153;BME280;28756;49.064;9.290;2023-05-25T06:55:56;58433.56;;;-147.77;100.00
43153;BME280;28756;49.064;9.290;2023-05-25T06:58:21;58433.56;;;-147.77;100.00
43153;BME280;28756;49.064;9.290;2023-05-25T07:00:47;58433.56;;;-147.77;100.00
43153;BME280;28756;49.064;9.290;2023-05-25T07:03:13;58433.56;;;-147.77;100.00
43153;BME280;28756;49.064;9.290;2023-05-25T07:05:38;58433.56;;;-147.77;100.00
43153;BME280;28756;49.064;9.290;2023-05-25T07:08:04;58433.56;;;-147.77;100.00
43153;BME280;28756;49.064;9.290;2023-05-25T07:10:30;58433.56;;;-147.77;100.00
43153;BME280;28756;49.064;9.290;2023-05-25T07:12:56;58433.56;;;-147.77;100.00
43153;BME280;28756;49.064;9.290;2023-05-25T07:15:22;58433.56;;;-147.77;100.00
43153;BME280;28756;49.064;9.290;2023-05-25T07:17:48;58433.56;;;-147.77;100.00
43153;BME280;28756;49.064;9.290;2023-05-25T07:20:14;58433.56;;;-147.77;100.00
43153;BME280;28756;49.064;9.290;2023-05-25T07:22:41;58433.56;;;-147.77;100.00
43153;BME280;28756;49.064;9.290;2023-05-25T07:25:07;58433.56;;;-147.77;100.00
43153;BME280;28756;49.064;9.290;2023-05-25T07:27:33;58433.56;;;-147.77;100.00
43153;BME280;28756;49.064;9.290;2023-05-25T07:29:58;58433.56;;;-147.77;100.00
43153;BME280;28756;49.064;9.290;2023-05-25T07:32:24;58433.56;;;-147.77;100.00
43153;BME280;28756;49.064;9.290;2023-05-25T07:34:51;58433.56;;;-147.77;100.00
43153;BME280;28756;49.064;9.290;2023-05-25T07:37:17;58433.56;;;-147.77;100.00
43153;BME280;28756;49.064;9.290;2023-05-25T07:39:43;58433.56;;;-147.77;100.00
43153;BME280;28756;49.064;9.290;2023-05-25T07:42:08;58433.56;;;-147.77;100.00
43153;BME280;28756;49.064;9.290;2023-05-25T07:44:35;58433.56;;;-147.77;100.00
43153;BME280;28756;49.064;9.290;2023-05-25T07:47:01;58433.56;;;-147.77;100.00
43153;BME280;28756;49.064;9.290;2023-05-25T07:49:26;58433.56;;;-147.77;100.00
43153;BME280;28756;49.064;9.290;2023-05-25T07:51:52;58433.56;;;-147.77;100.00
43153;BME280;28756;49.064;9.290;2023-05-25T07:54:18;58433.56;;;-147.77;100.00
43153;BME280;28756;49.064;9.290;2023-05-25T07:56:43;58433.56;;;-147.77;100.00
43153;BME280;28756;49.064;9.290;2023-05-25T07:59:09;58433.56;;;-147.77;100.00
43153;BME280;28756;49.064;9.290;2023-05-25T08:01:35;58433.56;;;-147.77;100.00
43153;BME280;28756;49.064;9.290;2023-05-25T08:04:01;58433.56;;;-147.77;100.00
43153;BME280;28756;49.064;9.290;2023-05-25T08:06:26;58433.56;;;-147.77;100.00
43153;BME280;28756;49.064;9.290;2023-05-25T08:08:52;58433.56;;;-147.77;100.00
43153;BME280;28756;49.064;9.290;2023-05-25T08:11:23;58433.56;;;-147.77;100.00
43153;BME280;28756;49.064;9.290;2023-05-25T08:13:52;58433.56;;;-147.77;100.00
43153;BME280;28756;49.064;9.290;2023-05-25T08:16:17;58433.56;;;-147.77;100.00
43153;BME280;28756;49.064;9.290;2023-05-25T08:18:43;58433.56;;;-147.77;100.00
43153;BME280;28756;49.064;9.290;2023-05-25T08:21:11;58433.56;;;-147.77;100.00
43153;BME280;28756;49.064;9.290;2023-05-25T08:23:39;58433.56;;;-147.77;100.00
43153;BME280;28756;49.064;9.290;2023-05-25T08:26:08;58433.56;;;-147.77;100.00
43153;BME280;28756;49.064;9.290;2023-05-25T08:28:33;58433.56;;;-147.77;100.00
43153;BME280;28756;49.064;9.290;2023-05-25T08:30:59;58433.56;;;-147.77;100.00
43153;BME280;28756;49.064;9.290;2023-05-25T08:33:25;58433.56;;;-147.77;100.00
43153;BME280;28756;49.064;9.290;2023-05-25T08:35:51;58433.56;;;-147.77;100.00
43153;BME280;28756;49.064;9.290;2023-05-25T08:38:17;58433.56;;;-147.77;100.00
43153;BME280;28756;49.064;9.290;2023-05-25T08:40:44;58433.56;;;-147.77;100.00
43153;BME280;28756;49.064;9.290;2023-05-25T08:43:11;58433.56;;;-147.77;100.00
43153;BME280;28756;49.064;9.290;2023-05-25T08:45:37;58433.56;;;-147.77;100.00
43153;BME280;28756;49.064;9.290;2023-05-25T08:48:07;58433.56;;;-147.77;100.00
43153;BME280;28756;49.064;9.290;2023-05-25T08:50:35;58433.56;;;-147.77;100.00
43153;BME280;28756;49.064;9.290;2023-05-25T08:53:09;99584.34;;;17.70;75.41
43153;BME280;28756;49.064;9.290;2023-05-25T08:55:38;99582.34;;;18.30;77.76
43153;BME280;28756;49.064;9.290;2023-05-25T08:58:22;99588.19;;;17.77;69.91
43153;BME280;28756;49.064;9.290;2023-05-25T09:00:56;99588.56;;;17.84;73.28
43153;BME280;28756;49.064;9.290;2023-05-25T09:03:23;99588.31;;;17.87;74.11
43153;BME280;28756;49.064;9.290;2023-05-25T09:05:49;99589.88;;;18.24;71.62
43153;BME280;28756;49.064;9.290;2023-05-25T09:08:16;99592.13;;;18.51;74.82
43153;BME280;28756;49.064;9.290;2023-05-25T09:10:42;99586.06;;;18.94;67.90
43153;BME280;28756;49.064;9.290;2023-05-25T09:13:08;99579.97;;;18.39;68.21
43153;BME280;28756;49.064;9.290;2023-05-25T09:15:34;99581.16;;;18.78;71.06
43153;BME280;28756;49.064;9.290;2023-05-25T09:18:00;99572.09;;;19.36;71.52
43153;BME280;28756;49.064;9.290;2023-05-25T09:20:25;99572.69;;;19.61;66.85
43153;BME280;28756;49.064;9.290;2023-05-25T09:22:57;99569.13;;;19.51;66.26
43153;BME280;28756;49.064;9.290;2023-05-25T09:25:25;99572.41;;;19.22;61.55
43153;BME280;28756;49.064;9.290;2023-05-25T09:27:52;99582.13;;;19.42;63.73
43153;BME280;28756;49.064;9.290;2023-05-25T09:30:18;99578.13;;;19.27;63.60
43153;BME280;28756;49.064;9.290;2023-05-25T09:32:44;99578.44;;;19.13;62.78
43153;BME280;28756;49.064;9.290;2023-05-25T09:35:13;99572.94;;;20.10;63.15
43153;BME280;28756;49.064;9.290;2023-05-25T09:37:41;99571.13;;;19.80;61.06
43153;BME280;28756;49.064;9.290;2023-05-25T09:40:08;99567.97;;;19.86;59.86
43153;BME280;28756;49.064;9.290;2023-05-25T09:42:38;99576.78;;;19.33;61.05
43153;BME280;28756;49.064;9.290;2023-05-25T09:45:05;99580.28;;;19.01;62.35
43153;BME280;28756;49.064;9.290;2023-05-25T09:47:31;99573.19;;;19.76;64.57
43153;BME280;28756;49.064;9.290;2023-05-25T09:49:57;99577.81;;;20.15;63.22
43153;BME280;28756;49.064;9.290;2023-05-25T09:52:23;99577.03;;;19.51;59.63
43153;BME280;28756;49.064;9.290;2023-05-25T09:58:27;99585.59;;;19.85;61.26
43153;BME280;28756;49.064;9.290;2023-05-25T10:00:54;99584.56;;;19.98;57.38
43153;BME280;28756;49.064;9.290;2023-05-25T10:03:20;99590.06;;;19.85;57.51
43153;BME280;28756;49.064;9.290;2023-05-25T10:05:47;99585.13;;;20.42;58.22
43153;BME280;28756;49.064;9.290;2023-05-25T10:08:13;99596.66;;;20.00;57.59
43153;BME280;28756;49.064;9.290;2023-05-25T10:10:41;99595.44;;;20.04;57.00
43153;BME280;28756;49.064;9.290;2023-05-25T10:13:07;99590.72;;;20.08;58.17
43153;BME280;28756;49.064;9.290;2023-05-25T10:15:36;99600.72;;;19.62;57.78
43153;BME280;28756;49.064;9.290;2023-05-25T10:18:05;99590.72;;;20.59;59.12
43153;BME280;28756;49.064;9.290;2023-05-25T10:20:33;99587.94;;;20.50;56.37
43153;BME280;28756;49.064;9.290;2023-05-25T10:23:04;99589.78;;;20.19;53.35
43153;BME280;28756;49.064;9.290;2023-05-25T10:25:47;99586.06;;;20.31;55.50
43153;BME280;28756;49.064;9.290;2023-05-25T10:28:29;99584.06;;;20.55;55.46
43153;BME280;28756;49.064;9.290;2023-05-25T10:30:58;99575.78;;;20.79;56.51
43153;BME280;28756;49.064;9.290;2023-05-25T10:33:28;99580.13;;;20.39;56.79
43153;BME280;28756;49.064;9.290;2023-05-25T10:35:54;99574.88;;;20.08;55.53
43153;BME280;28756;49.064;9.290;2023-05-25T10:38:21;99574.69;;;20.31;55.86
43153;BME280;28756;49.064;9.290;2023-05-25T10:40:48;99577.84;;;20.75;57.21
43153;BME280;28756;49.064;9.290;2023-05-25T10:43:16;99578.41;;;20.28;56.12
43153;BME280;28756;49.064;9.290;2023-05-25T10:45:43;99574.16;;;20.47;58.55
43153;BME280;28756;49.064;9.290;2023-05-25T10:48:09;99571.91;;;20.42;53.60
43153;BME280;28756;49.064;9.290;2023-05-25T10:50:36;99565.75;;;21.12;58.45
43153;BME280;28756;49.064;9.290;2023-05-25T10:53:12;99567.53;;;21.60;54.69
43153;BME280;28756;49.064;9.290;2023-05-25T10:58:22;99575.22;;;20.85;55.82
43153;BME280;28756;49.064;9.290;2023-05-25T11:01:11;99575.50;;;20.92;53.95
43153;BME280;28756;49.064;9.290;2023-05-25T11:06:13;99575.84;;;20.48;55.92
43153;BME280;28756;49.064;9.290;2023-05-25T11:08:59;99559.03;;;21.37;61.78
43153;BME280;28756;49.064;9.290;2023-05-25T11:14:32;99581.31;;;20.76;55.15
43153;BME280;28756;49.064;9.290;2023-05-25T11:17:15;99576.84;;;20.66;55.28
43153;BME280;28756;49.064;9.290;2023-05-25T11:19:51;99573.69;;;20.73;56.00
43153;BME280;28756;49.064;9.290;2023-05-25T11:22:31;99572.84;;;20.22;54.59
43153;BME280;28756;49.064;9.290;2023-05-25T11:25:02;99558.94;;;21.09;58.51
43153;BME280;28756;49.064;9.290;2023-05-25T11:27:47;99563.41;;;21.19;56.49
43153;BME280;28756;49.064;9.290;2023-05-25T11:30:17;99567.31;;;20.95;57.57
43153;BME280;28756;49.064;9.290;2023-05-25T11:32:49;99574.81;;;20.80;56.25
43153;BME280;28756;49.064;9.290;2023-05-25T11:35:15;99560.06;;;20.27;57.51
43153;BME280;28756;49.064;9.290;2023-05-25T11:37:41;99571.91;;;20.42;60.27
43153;BME280;28756;49.064;9.290;2023-05-25T11:40:14;99576.53;;;20.50;58.59
43153;BME280;28756;49.064;9.290;2023-05-25T11:42:41;99568.72;;;20.39;61.38
43153;BME280;28756;49.064;9.290;2023-05-25T11:45:10;99575.00;;;20.47;58.01
43153;BME280;28756;49.064;9.290;2023-05-25T11:47:38;99566.47;;;20.85;57.87
43153;BME280;28756;49.064;9.290;2023-05-25T11:50:04;99566.34;;;20.35;57.82
43153;BME280;28756;49.064;9.290;2023-05-25T11:52:30;99561.72;;;20.98;59.63
43153;BME280;28756;49.064;9.290;2023-05-25T11:54:56;99552.13;;;20.87;59.62
43153;BME280;28756;49.064;9.290;2023-05-25T11:57:23;99555.75;;;21.16;56.52
43153;BME280;28756;49.064;9.290;2023-05-25T11:59:58;99568.09;;;20.76;57.95
43153;BME280;28756;49.064;9.290;2023-05-25T12:02:37;99562.28;;;21.02;61.17
43153;BME280;28756;49.064;9.290;2023-05-25T12:05:04;99555.47;;;20.99;58.27
43153;BME280;28756;49.064;9.290;2023-05-25T12:07:31;99565.19;;;20.79;58.06
43153;BME280;28756;49.064;9.290;2023-05-25T12:10:07;99558.06;;;20.70;57.58
43153;BME280;28756;49.064;9.290;2023-05-25T12:12:39;99570.72;;;20.66;59.25
43153;BME280;28756;49.064;9.290;2023-05-25T12:15:08;99544.59;;;20.82;59.74
43153;BME280;28756;49.064;9.290;2023-05-25T12:17:34;99545.72;;;21.09;59.07
43153;BME280;28756;49.064;9.290;2023-05-25T12:20:00;99536.81;;;21.10;57.96
43153;BME280;28756;49.064;9.290;2023-05-25T12:22:26;99545.09;;;21.55;55.55
43153;BME280;28756;49.064;9.290;2023-05-25T12:24:52;99538.69;;;21.48;57.60
43153;BME280;28756;49.064;9.290;2023-05-25T12:27:19;99539.09;;;21.53;57.84
43153;BME280;28756;49.064;9.290;2023-05-25T12:29:47;99541.31;;;21.77;55.65
43153;BME280;28756;49.064;9.290;2023-05-25T12:32:14;99541.41;;;21.18;56.88
43153;BME280;28756;49.064;9.290;2023-05-25T12:34:40;99539.28;;;21.32;54.05
43153;BME280;28756;49.064;9.290;2023-05-25T12:37:20;99526.28;;;21.48;55.82
43153;BME280;28756;49.064;9.290;2023-05-25T12:39:47;99549.34;;;21.08;54.17
43153;BME280;28756;49.064;9.290;2023-05-25T12:42:14;99529.03;;;21.19;60.61
43153;BME280;28756;49.064;9.290;2023-05-25T12:44:42;99537.84;;;21.57;55.50
43153;BME280;28756;49.064;9.290;2023-05-25T12:47:18;99539.44;;;21.87;56.47
43153;BME280;28756;49.064;9.290;2023-05-25T12:49:49;99540.16;;;21.12;55.40
43153;BME280;28756;49.064;9.290;2023-05-25T12:52:36;99523.47;;;21.12;57.81
43153;BME280;28756;49.064;9.290;2023-05-25T13:00:30;99537.78;;;21.19;53.34